Cambridge, Canada
Current Conditions -  °F | °C
As of 11:00 AM on Monday 26 Jan 2015 (Local Time) from CYKF Reporting Station
Light Snow Light Snow  
Wind Chill: -4°   Ceiling: Unl
Heat Index: 12°   Visibility: 9mi
Dew Point:   Wind: 16mph
Humidity: 73%   Direction: 60°ENE
Pressure: 29.94"   Gusts: NA
Location:  43.38°N, 80.32°W
Report Text: CYKF 261600Z AUTO 06014KT 9SM -SN CLR M11/M15 A2994 RMK SLP162
Loading
Personal Weather Stations






























Interactive Weather Map New forecast layout! Learn more

10-Day Weather Forecast

Advertisements
Track Severe Weather on mobile